Terminal Aerodrome Forecast
Issued by NWS

Home | Current Version | Previous Version | Text Only | Print | Product List | Glossary On
Versions: 1 2 3 4 5 6 7 8 9 10 11 12 13 14 15 16 17 18 19 20
000
FTUS43 KIWX 230500
TAFSBN
TAF
KSBN 230536Z 2306/2406 VRB03KT 5SM BR SCT025 BKN035
     FM230800 00000KT 2SM BR BKN007
      TEMPO 2309/2313 1SM BR BKN004
     FM231300 10003KT 4SM BR BKN015
     FM231500 11006KT 6SM BR BKN025=

USA.gov is the U.S. government's official web portal to all federal, state and local government web resources and services.